createdAt,value
2024-01-14T00:00:34.457Z,36.53
2024-01-14T00:01:06.634Z,39.40
2024-01-14T00:01:38.600Z,40.03
2024-01-14T00:02:10.698Z,39.03
2024-01-14T00:02:42.632Z,39.30
2024-01-14T00:03:14.662Z,38.57
2024-01-14T00:03:46.705Z,38.73
2024-01-14T00:04:18.856Z,38.43
2024-01-14T00:04:50.778Z,37.27
2024-01-14T00:05:22.716Z,38.07
2024-01-14T00:05:54.787Z,38.23
2024-01-14T00:06:26.913Z,38.80
2024-01-14T00:06:58.916Z,39.80
2024-01-14T00:07:30.849Z,39.23
2024-01-14T00:08:03.487Z,38.23
2024-01-14T00:08:35.416Z,38.20
2024-01-14T00:09:07.734Z,39.60
2024-01-14T00:09:39.706Z,38.43
2024-01-14T00:10:11.697Z,38.67
2024-01-14T00:10:43.628Z,39.40
2024-01-14T00:11:15.559Z,39.93
2024-01-14T00:11:47.522Z,38.97
2024-01-14T00:12:19.502Z,40.20
2024-01-14T00:12:52.068Z,39.07
2024-01-14T00:13:24.059Z,38.63
2024-01-14T00:13:55.990Z,38.40
2024-01-14T00:14:27.925Z,38.73
2024-01-14T00:14:59.932Z,38.47
2024-01-14T00:15:32.162Z,38.70
2024-01-14T00:16:04.923Z,39.70
2024-01-14T00:16:37.069Z,50.90
2024-01-14T00:17:09.329Z,73.77
2024-01-14T00:17:42.615Z,193.00
2024-01-14T00:18:14.864Z,622.63
2024-01-14T00:18:47.017Z,325.73
2024-01-14T00:19:19.237Z,148.13
2024-01-14T00:19:52.725Z,166.13
2024-01-14T00:20:24.764Z,143.83
2024-01-14T00:20:56.792Z,148.17
2024-01-14T00:21:28.915Z,205.77
2024-01-14T00:22:00.922Z,344.00
2024-01-14T00:22:32.874Z,273.13
2024-01-14T00:23:04.853Z,395.63
2024-01-14T00:23:36.806Z,687.17
2024-01-14T00:24:08.855Z,862.83
2024-01-14T00:24:40.856Z,665.57
2024-01-14T00:25:13.427Z,550.27
2024-01-14T00:25:45.392Z,364.67
2024-01-14T00:26:17.306Z,132.87
2024-01-14T00:26:49.295Z,100.70
2024-01-14T00:27:21.402Z,168.03
2024-01-14T00:27:53.361Z,221.60
2024-01-14T00:28:25.299Z,195.80
2024-01-14T00:28:58.423Z,93.23
2024-01-14T00:29:30.316Z,68.40
2024-01-14T00:30:02.520Z,62.10
2024-01-14T00:30:34.724Z,73.73
2024-01-14T00:31:06.856Z,85.67
2024-01-14T00:31:38.892Z,75.40
2024-01-14T00:32:10.910Z,63.50
2024-01-14T00:32:42.924Z,58.10
2024-01-14T00:33:15.049Z,58.40
2024-01-14T00:33:47.506Z,50.43
2024-01-14T00:34:19.683Z,48.83
2024-01-14T00:34:51.677Z,47.70
2024-01-14T00:35:23.622Z,46.40
2024-01-14T00:35:55.690Z,44.07
2024-01-14T00:36:27.716Z,43.17
2024-01-14T00:36:59.652Z,44.63
2024-01-14T00:37:31.574Z,45.07
2024-01-14T00:38:03.700Z,41.00
2024-01-14T00:38:35.701Z,38.97
2024-01-14T00:39:07.973Z,39.27
2024-01-14T00:39:40.184Z,40.10
2024-01-14T00:40:12.327Z,39.97
2024-01-14T00:40:44.288Z,38.87
2024-01-14T00:41:16.406Z,41.20
2024-01-14T00:41:48.502Z,40.77
2024-01-14T00:42:20.502Z,39.43
2024-01-14T00:42:52.458Z,41.83
2024-01-14T00:43:24.440Z,45.03
2024-01-14T00:43:56.358Z,48.07
2024-01-14T00:44:28.323Z,52.13
2024-01-14T00:45:00.355Z,54.13
2024-01-14T00:45:32.570Z,62.30
2024-01-14T00:46:05.391Z,62.17
2024-01-14T00:46:37.320Z,48.47
2024-01-14T00:47:09.232Z,41.60
2024-01-14T00:47:41.298Z,41.17
2024-01-14T00:48:13.341Z,39.80
2024-01-14T00:48:45.492Z,40.50
2024-01-14T00:49:17.640Z,37.80
2024-01-14T00:49:49.659Z,36.47
2024-01-14T00:50:21.604Z,37.60
2024-01-14T00:50:53.720Z,38.63
2024-01-14T00:51:25.845Z,37.33
2024-01-14T00:51:57.859Z,37.07
2024-01-14T00:52:29.909Z,36.37
2024-01-14T00:53:01.836Z,36.50
2024-01-14T00:53:33.776Z,38.43
2024-01-14T00:54:05.732Z,37.87
2024-01-14T00:54:37.715Z,37.37
2024-01-14T00:55:10.445Z,36.80
2024-01-14T00:55:42.414Z,37.50
2024-01-14T00:56:14.372Z,37.23
2024-01-14T00:56:46.879Z,36.70
2024-01-14T00:57:19.424Z,37.40
2024-01-14T00:57:51.405Z,37.17
2024-01-14T00:58:23.406Z,35.33
2024-01-14T00:58:55.366Z,35.43
2024-01-14T00:59:27.302Z,35.93
2024-01-14T00:59:59.248Z,35.27
2024-01-14T01:00:31.716Z,35.33
2024-01-14T01:01:04.087Z,34.53
2024-01-14T01:01:36.201Z,35.63
2024-01-14T01:02:08.209Z,36.13
2024-01-14T01:02:40.142Z,36.40
2024-01-14T01:03:12.155Z,35.50
2024-01-14T01:03:44.237Z,35.53
2024-01-14T01:04:16.214Z,36.00
2024-01-14T01:04:48.208Z,34.67
2024-01-14T01:05:20.419Z,33.43
2024-01-14T01:05:54.786Z,34.47
2024-01-14T01:06:26.934Z,33.27
2024-01-14T01:06:58.856Z,33.87
2024-01-14T01:07:32.098Z,36.97
2024-01-14T01:08:04.183Z,36.30
2024-01-14T01:08:36.128Z,35.93
2024-01-14T01:09:08.221Z,33.97
2024-01-14T01:09:40.200Z,32.90
2024-01-14T01:10:12.600Z,33.47
2024-01-14T01:10:44.540Z,33.93
2024-01-14T01:11:17.954Z,33.63
2024-01-14T01:11:49.957Z,33.80
2024-01-14T01:12:21.920Z,32.60
2024-01-14T01:12:53.835Z,31.13
2024-01-14T01:13:25.775Z,32.63
2024-01-14T01:13:57.746Z,32.43
2024-01-14T01:14:29.674Z,33.00
2024-01-14T01:15:01.828Z,32.93
2024-01-14T01:15:33.971Z,33.57
2024-01-14T01:16:06.080Z,35.37
2024-01-14T01:16:38.047Z,35.80
2024-01-14T01:17:10.018Z,40.67
2024-01-14T01:17:42.025Z,41.43
2024-01-14T01:18:14.059Z,38.20
2024-01-14T01:18:46.121Z,38.03
2024-01-14T01:19:18.176Z,37.53
2024-01-14T01:19:50.337Z,39.30
2024-01-14T01:20:22.283Z,37.47
2024-01-14T01:20:54.232Z,34.57
2024-01-14T01:21:26.342Z,33.40
2024-01-14T01:21:58.298Z,32.80
2024-01-14T01:22:30.239Z,32.93
2024-01-14T01:23:02.221Z,34.20
2024-01-14T01:23:34.216Z,34.70
2024-01-14T01:24:06.191Z,34.43
2024-01-14T01:24:39.193Z,32.87
2024-01-14T01:25:14.112Z,32.80
2024-01-14T01:25:46.035Z,32.00
2024-01-14T01:26:18.004Z,31.90
2024-01-14T01:26:50.023Z,31.57
2024-01-14T01:27:22.257Z,31.57
2024-01-14T01:27:54.201Z,31.60
2024-01-14T01:28:26.109Z,31.80
2024-01-14T01:29:00.176Z,32.67
2024-01-14T01:29:33.530Z,32.17
2024-01-14T01:30:06.330Z,32.50
2024-01-14T01:30:38.546Z,32.20
2024-01-14T01:31:10.651Z,32.37
2024-01-14T01:31:47.716Z,32.77
2024-01-14T01:32:23.182Z,31.63
2024-01-14T01:32:55.499Z,31.97
2024-01-14T01:33:27.653Z,31.03
2024-01-14T01:33:59.786Z,31.63
2024-01-14T01:34:31.897Z,31.93
2024-01-14T01:35:04.563Z,30.90
2024-01-14T01:35:37.299Z,32.17
2024-01-14T01:36:09.447Z,32.50
2024-01-14T01:36:41.521Z,31.43
2024-01-14T01:37:13.515Z,31.53
2024-01-14T01:37:46.097Z,32.00
2024-01-14T01:38:18.031Z,32.20
2024-01-14T01:38:49.947Z,31.97
2024-01-14T01:39:22.013Z,32.53
2024-01-14T01:39:53.985Z,32.43
2024-01-14T01:40:25.986Z,31.40
2024-01-14T01:40:57.907Z,31.87
2024-01-14T01:41:29.821Z,31.63
2024-01-14T01:42:01.799Z,31.47
2024-01-14T01:42:35.955Z,32.00
2024-01-14T01:43:08.097Z,31.30
2024-01-14T01:43:40.023Z,30.50
2024-01-14T01:44:12.439Z,31.00
2024-01-14T01:44:44.438Z,31.33
2024-01-14T01:45:16.516Z,31.70
2024-01-14T01:45:48.640Z,31.20
2024-01-14T01:46:20.586Z,30.30
2024-01-14T01:46:53.800Z,30.93
2024-01-14T01:47:25.959Z,30.40
2024-01-14T01:47:58.004Z,31.33
2024-01-14T01:48:30.135Z,33.30
2024-01-14T01:49:02.695Z,32.23
2024-01-14T01:49:34.784Z,33.17
2024-01-14T01:50:07.420Z,33.37
2024-01-14T01:50:40.145Z,32.90
2024-01-14T01:51:12.106Z,32.90
2024-01-14T01:51:48.480Z,32.60
2024-01-14T01:52:20.517Z,32.50
2024-01-14T01:52:52.493Z,32.33
2024-01-14T01:53:26.436Z,31.93
2024-01-14T01:53:58.982Z,36.07
2024-01-14T01:54:31.275Z,37.13
2024-01-14T01:55:04.364Z,36.57
2024-01-14T01:55:36.328Z,35.23
2024-01-14T01:56:08.474Z,33.70
2024-01-14T01:56:40.906Z,35.23
2024-01-14T01:57:14.074Z,37.10
2024-01-14T01:57:46.935Z,39.30
2024-01-14T01:58:18.905Z,39.63
2024-01-14T01:58:51.214Z,38.60
2024-01-14T01:59:23.368Z,35.80
2024-01-14T01:59:55.307Z,34.23
2024-01-14T02:00:27.290Z,33.23
2024-01-14T02:00:59.938Z,35.77
2024-01-14T02:01:33.921Z,36.93
2024-01-14T02:02:06.199Z,37.03
2024-01-14T02:02:38.868Z,37.87
2024-01-14T02:03:12.212Z,37.53
2024-01-14T02:03:44.458Z,33.43
2024-01-14T02:04:17.229Z,34.57
2024-01-14T02:04:49.258Z,34.80
2024-01-14T02:05:22.226Z,35.63
2024-01-14T02:05:56.045Z,34.17
2024-01-14T02:06:29.164Z,33.23
2024-01-14T02:07:01.225Z,31.50
2024-01-14T02:07:33.707Z,31.17
2024-01-14T02:08:05.702Z,32.77
2024-01-14T02:08:38.199Z,33.00
2024-01-14T02:09:10.478Z,33.00
2024-01-14T02:09:42.536Z,33.23
2024-01-14T02:10:14.775Z,32.43
2024-01-14T02:10:46.702Z,31.67
2024-01-14T02:11:18.632Z,34.27
2024-01-14T02:11:50.767Z,32.87
2024-01-14T02:12:22.738Z,33.00
2024-01-14T02:12:54.665Z,33.13
2024-01-14T02:13:26.630Z,32.63
2024-01-14T02:13:58.578Z,33.77
2024-01-14T02:14:30.513Z,34.83
2024-01-14T02:15:02.512Z,34.13
2024-01-14T02:15:34.551Z,32.80
2024-01-14T02:16:07.364Z,34.07
2024-01-14T02:16:39.338Z,37.33
2024-01-14T02:17:11.237Z,36.90
2024-01-14T02:17:43.323Z,31.87
2024-01-14T02:18:15.427Z,31.33
2024-01-14T02:18:47.544Z,38.17
2024-01-14T02:19:19.675Z,37.90
2024-01-14T02:19:51.822Z,34.57
2024-01-14T02:20:23.785Z,35.73
2024-01-14T02:20:56.880Z,42.17
2024-01-14T02:21:39.438Z,40.90
2024-01-14T02:22:19.541Z,39.47
2024-01-14T02:22:54.231Z,41.47
2024-01-14T02:23:27.167Z,44.67
2024-01-14T02:24:15.430Z,38.77
2024-01-14T02:24:47.362Z,37.37
2024-01-14T02:25:19.343Z,39.80
2024-01-14T02:25:51.436Z,36.33
2024-01-14T02:26:23.453Z,32.87
2024-01-14T02:26:55.766Z,32.27
2024-01-14T02:27:27.996Z,32.17
2024-01-14T02:27:59.985Z,32.17
2024-01-14T02:28:32.360Z,31.80
2024-01-14T02:29:06.572Z,31.23
2024-01-14T02:29:39.973Z,29.90
2024-01-14T02:30:12.561Z,31.37
2024-01-14T02:30:45.194Z,31.73
2024-01-14T02:31:17.299Z,31.47
2024-01-14T02:31:49.500Z,31.23
2024-01-14T02:32:21.509Z,29.17
2024-01-14T02:32:56.022Z,28.77
2024-01-14T02:33:28.195Z,32.80
2024-01-14T02:34:00.563Z,35.20
2024-01-14T02:34:33.949Z,32.77
2024-01-14T02:35:08.931Z,32.53
2024-01-14T02:35:41.432Z,34.20
2024-01-14T02:36:13.483Z,34.60
2024-01-14T02:36:45.483Z,34.17
2024-01-14T02:37:17.420Z,33.30
2024-01-14T02:37:49.842Z,34.50
2024-01-14T02:38:21.751Z,31.90
2024-01-14T02:38:53.693Z,29.13
2024-01-14T02:39:25.646Z,27.23
2024-01-14T02:39:57.673Z,30.67
2024-01-14T02:40:29.593Z,30.33
2024-01-14T02:41:01.502Z,30.33
2024-01-14T02:41:34.201Z,31.00
2024-01-14T02:42:06.285Z,30.07
2024-01-14T02:42:39.561Z,29.73
2024-01-14T02:43:11.550Z,28.13
2024-01-14T02:43:43.522Z,28.47
2024-01-14T02:44:15.445Z,28.60
2024-01-14T02:44:47.402Z,27.70
2024-01-14T02:45:20.539Z,28.10
2024-01-14T02:45:52.502Z,28.93
2024-01-14T02:46:25.463Z,30.00
2024-01-14T02:46:57.369Z,28.73
2024-01-14T02:47:29.297Z,26.93
2024-01-14T02:48:01.406Z,27.27
2024-01-14T02:48:33.556Z,27.70
2024-01-14T02:49:05.591Z,28.37
2024-01-14T02:49:37.585Z,28.50
2024-01-14T02:50:09.724Z,28.57
2024-01-14T02:50:41.712Z,28.00
2024-01-14T02:51:13.791Z,27.70
2024-01-14T02:51:47.002Z,28.63
2024-01-14T02:52:18.939Z,27.90
2024-01-14T02:52:50.865Z,28.73
2024-01-14T02:53:22.779Z,27.40
2024-01-14T02:53:54.704Z,27.90
2024-01-14T02:54:26.667Z,27.20
2024-01-14T02:54:58.605Z,27.87
2024-01-14T02:55:30.528Z,27.90
2024-01-14T02:56:03.702Z,29.30
2024-01-14T02:56:35.634Z,28.40
2024-01-14T02:57:07.683Z,27.43
2024-01-14T02:57:39.807Z,26.97
2024-01-14T02:58:11.762Z,28.67
2024-01-14T02:58:43.693Z,28.83
2024-01-14T02:59:15.663Z,29.20
2024-01-14T02:59:47.879Z,27.93
2024-01-14T03:00:19.899Z,27.33
2024-01-14T03:00:51.979Z,29.13
2024-01-14T03:01:24.115Z,28.93
2024-01-14T03:01:56.067Z,28.17
2024-01-14T03:02:28.031Z,27.53
2024-01-14T03:03:00.038Z,28.23
2024-01-14T03:03:32.344Z,28.90
2024-01-14T03:04:04.482Z,28.80
2024-01-14T03:04:36.468Z,28.53
2024-01-14T03:05:08.816Z,28.07
2024-01-14T03:05:41.033Z,28.23
2024-01-14T03:06:13.483Z,28.60
2024-01-14T03:06:45.999Z,28.33
2024-01-14T03:07:18.006Z,28.00
2024-01-14T03:07:49.910Z,27.23
2024-01-14T03:08:21.962Z,26.80
2024-01-14T03:08:53.948Z,28.60
2024-01-14T03:09:25.950Z,28.97
2024-01-14T03:09:57.938Z,28.80
2024-01-14T03:10:29.854Z,29.63
2024-01-14T03:11:01.791Z,29.00
2024-01-14T03:11:34.725Z,28.30
2024-01-14T03:12:06.767Z,27.53
2024-01-14T03:12:38.768Z,27.50
2024-01-14T03:13:12.421Z,29.07
2024-01-14T03:13:45.575Z,29.93
2024-01-14T03:14:17.495Z,29.97
2024-01-14T03:14:49.492Z,30.20
2024-01-14T03:15:21.480Z,30.27
2024-01-14T03:15:53.687Z,30.20
2024-01-14T03:16:25.633Z,29.73
2024-01-14T03:16:57.660Z,28.90
2024-01-14T03:17:29.874Z,28.60
2024-01-14T03:18:01.963Z,28.70
2024-01-14T03:18:34.093Z,29.13
2024-01-14T03:19:06.268Z,29.70
2024-01-14T03:19:38.426Z,29.37
2024-01-14T03:20:10.516Z,29.93
2024-01-14T03:20:43.765Z,30.63
2024-01-14T03:21:20.006Z,30.07
2024-01-14T03:21:52.861Z,28.30
2024-01-14T03:22:24.809Z,26.80
2024-01-14T03:22:56.720Z,26.80
2024-01-14T03:23:28.703Z,26.03
2024-01-14T03:24:00.756Z,28.10
2024-01-14T03:24:32.797Z,28.70
2024-01-14T03:25:05.392Z,27.30
2024-01-14T03:25:37.321Z,26.37
2024-01-14T03:26:09.256Z,26.37
2024-01-14T03:26:41.156Z,28.00
2024-01-14T03:27:13.084Z,28.17
2024-01-14T03:27:45.718Z,27.77
2024-01-14T03:28:17.652Z,28.50
2024-01-14T03:28:49.568Z,27.37
2024-01-14T03:29:21.491Z,26.97
2024-01-14T03:29:53.414Z,27.83
2024-01-14T03:30:25.617Z,27.10
2024-01-14T03:30:57.838Z,26.70
2024-01-14T03:31:29.896Z,27.17
2024-01-14T03:32:01.879Z,28.40
2024-01-14T03:32:34.093Z,28.20
2024-01-14T03:33:06.228Z,26.93
2024-01-14T03:33:38.312Z,28.23
2024-01-14T03:34:10.507Z,28.90
2024-01-14T03:34:42.757Z,27.80
2024-01-14T03:35:15.113Z,28.50
2024-01-14T03:35:47.123Z,28.80
2024-01-14T03:36:19.071Z,27.60
2024-01-14T03:36:51.031Z,28.37
2024-01-14T03:37:23.037Z,28.30
2024-01-14T03:37:54.953Z,27.67
2024-01-14T03:38:26.872Z,27.20
2024-01-14T03:38:58.846Z,27.50
2024-01-14T03:39:30.986Z,27.83
2024-01-14T03:40:03.555Z,28.60
2024-01-14T03:40:35.511Z,26.93
2024-01-14T03:41:07.509Z,27.03
2024-01-14T03:41:39.408Z,26.77
2024-01-14T03:42:11.341Z,26.97
2024-01-14T03:42:43.338Z,27.93
2024-01-14T03:43:15.450Z,27.87
2024-01-14T03:43:47.962Z,26.83
2024-01-14T03:44:19.899Z,26.57
2024-01-14T03:44:51.859Z,27.37
2024-01-14T03:45:23.818Z,27.23
2024-01-14T03:45:55.811Z,26.60
2024-01-14T03:46:27.886Z,27.80
2024-01-14T03:46:59.827Z,27.83
2024-01-14T03:47:31.864Z,28.10
2024-01-14T03:48:04.326Z,27.17
2024-01-14T03:48:37.030Z,26.77
2024-01-14T03:49:10.498Z,27.53
2024-01-14T03:49:42.612Z,28.23
2024-01-14T03:50:14.700Z,28.67
2024-01-14T03:50:46.739Z,27.63
2024-01-14T03:51:18.700Z,26.70
2024-01-14T03:51:50.670Z,26.03
2024-01-14T03:52:22.590Z,26.20
2024-01-14T03:52:54.511Z,27.87
2024-01-14T03:53:26.453Z,27.43
2024-01-14T03:53:58.464Z,27.53
2024-01-14T03:54:30.548Z,26.80
2024-01-14T03:55:02.525Z,27.20
2024-01-14T03:55:34.458Z,28.07
2024-01-14T03:56:06.428Z,26.97
2024-01-14T03:56:38.326Z,26.50
2024-01-14T03:57:10.492Z,26.83
2024-01-14T03:57:42.425Z,27.30
2024-01-14T03:58:14.633Z,26.53
2024-01-14T03:58:46.956Z,27.03
2024-01-14T03:59:18.864Z,26.90
2024-01-14T03:59:50.851Z,27.40
2024-01-14T04:00:22.843Z,25.80
2024-01-14T04:00:54.870Z,26.23
2024-01-14T04:01:26.860Z,26.53
2024-01-14T04:01:58.797Z,27.43
2024-01-14T04:02:30.744Z,26.43
2024-01-14T04:03:02.769Z,24.87
2024-01-14T04:03:34.884Z,24.50
2024-01-14T04:04:07.478Z,24.70
2024-01-14T04:04:39.623Z,24.53
2024-01-14T04:05:11.591Z,24.30
2024-01-14T04:05:44.257Z,26.20
2024-01-14T04:06:20.340Z,26.83
2024-01-14T04:06:52.698Z,25.80
2024-01-14T04:07:24.714Z,25.40
2024-01-14T04:07:56.634Z,24.80
2024-01-14T04:08:28.576Z,26.20
2024-01-14T04:09:00.654Z,25.10
2024-01-14T04:09:32.649Z,24.03
2024-01-14T04:10:04.790Z,24.83
2024-01-14T04:10:36.722Z,25.77
2024-01-14T04:11:09.454Z,25.43
2024-01-14T04:11:41.484Z,25.23
2024-01-14T04:12:13.429Z,26.10
2024-01-14T04:12:45.435Z,25.83
2024-01-14T04:13:17.557Z,25.40
2024-01-14T04:13:49.466Z,24.40
2024-01-14T04:14:21.386Z,25.80
2024-01-14T04:14:53.422Z,25.00
2024-01-14T04:15:25.478Z,26.20
2024-01-14T04:16:01.714Z,24.63
2024-01-14T04:16:41.272Z,25.97
2024-01-14T04:17:13.218Z,25.73
2024-01-14T04:17:45.159Z,25.70
2024-01-14T04:18:17.160Z,25.30
2024-01-14T04:18:49.637Z,24.73
2024-01-14T04:19:21.633Z,25.60
2024-01-14T04:19:53.620Z,26.90
2024-01-14T04:20:25.725Z,26.63
2024-01-14T04:20:58.784Z,26.53
2024-01-14T04:21:31.085Z,26.67
2024-01-14T04:22:03.030Z,26.67
2024-01-14T04:22:35.027Z,26.23
2024-01-14T04:23:06.924Z,27.20
2024-01-14T04:23:38.848Z,26.20
2024-01-14T04:24:10.857Z,26.60
2024-01-14T04:24:43.125Z,25.97
2024-01-14T04:25:15.357Z,25.00
2024-01-14T04:25:47.343Z,26.23
2024-01-14T04:26:23.222Z,25.93
2024-01-14T04:26:55.185Z,25.73
2024-01-14T04:27:27.215Z,26.67
2024-01-14T04:27:59.148Z,25.87
2024-01-14T04:28:31.053Z,26.80
2024-01-14T04:29:02.961Z,26.97
2024-01-14T04:29:35.264Z,26.27
2024-01-14T04:30:08.073Z,26.27
2024-01-14T04:30:40.152Z,26.00
2024-01-14T04:31:12.342Z,26.60
2024-01-14T04:31:44.331Z,25.60
2024-01-14T04:32:16.256Z,26.13
2024-01-14T04:32:50.827Z,26.30
2024-01-14T04:33:23.482Z,26.43
2024-01-14T04:33:56.850Z,25.03
2024-01-14T04:34:28.969Z,25.40
2024-01-14T04:35:01.303Z,25.53
2024-01-14T04:35:33.350Z,26.63
2024-01-14T04:36:05.851Z,26.10
2024-01-14T04:36:37.928Z,26.60
2024-01-14T04:37:09.919Z,26.53
2024-01-14T04:37:41.818Z,26.57
2024-01-14T04:38:14.085Z,25.87
2024-01-14T04:38:46.053Z,26.10
2024-01-14T04:39:18.094Z,27.57
2024-01-14T04:39:50.028Z,26.93
2024-01-14T04:40:21.970Z,26.50
2024-01-14T04:40:53.901Z,26.57
2024-01-14T04:41:25.880Z,27.27
2024-01-14T04:41:58.903Z,25.77
2024-01-14T04:42:31.002Z,27.27
2024-01-14T04:43:03.206Z,26.77
2024-01-14T04:43:36.462Z,26.50
2024-01-14T04:44:08.424Z,26.27
2024-01-14T04:44:40.341Z,26.43
2024-01-14T04:45:12.319Z,27.23
2024-01-14T04:45:44.307Z,27.63
2024-01-14T04:46:16.249Z,26.80
2024-01-14T04:46:48.229Z,27.30
2024-01-14T04:47:20.173Z,25.97
2024-01-14T04:47:52.242Z,25.80
2024-01-14T04:48:24.396Z,25.53
2024-01-14T04:48:56.748Z,26.80
2024-01-14T04:49:29.175Z,26.43
2024-01-14T04:50:01.636Z,26.57
2024-01-14T04:50:33.823Z,26.60
2024-01-14T04:51:06.130Z,27.00
2024-01-14T04:51:39.259Z,27.00
2024-01-14T04:52:11.480Z,27.33
2024-01-14T04:52:43.530Z,27.23
2024-01-14T04:53:15.599Z,27.17
2024-01-14T04:53:47.547Z,27.03
2024-01-14T04:54:19.537Z,25.57
2024-01-14T04:54:51.535Z,26.87
2024-01-14T04:55:23.447Z,26.43
2024-01-14T04:55:55.441Z,26.53
2024-01-14T04:56:27.431Z,28.00
2024-01-14T04:56:59.684Z,27.73
2024-01-14T04:57:31.807Z,27.10
2024-01-14T04:58:03.920Z,26.37
2024-01-14T04:58:35.846Z,27.00
2024-01-14T04:59:07.900Z,27.33
2024-01-14T04:59:39.802Z,26.60
2024-01-14T05:00:13.810Z,27.53
2024-01-14T05:00:46.215Z,26.87
2024-01-14T05:01:18.279Z,26.93
2024-01-14T05:01:50.231Z,27.47
2024-01-14T05:02:22.144Z,28.07
2024-01-14T05:02:54.127Z,28.13
2024-01-14T05:03:26.366Z,28.30
2024-01-14T05:03:58.497Z,28.67
2024-01-14T05:04:30.570Z,29.07
2024-01-14T05:05:02.907Z,28.33
2024-01-14T05:05:34.910Z,28.70
2024-01-14T05:06:07.149Z,29.60
2024-01-14T05:06:39.233Z,28.73
2024-01-14T05:07:11.832Z,27.47
2024-01-14T05:07:43.823Z,26.93
2024-01-14T05:08:15.730Z,28.43
2024-01-14T05:08:47.688Z,28.90
2024-01-14T05:09:19.622Z,27.83
2024-01-14T05:09:51.796Z,28.67
2024-01-14T05:10:23.738Z,29.43
2024-01-14T05:10:55.694Z,28.10
2024-01-14T05:11:27.677Z,27.70
2024-01-14T05:11:59.675Z,29.03
2024-01-14T05:12:31.706Z,30.13
2024-01-14T05:13:03.697Z,28.10
2024-01-14T05:13:35.615Z,29.10
2024-01-14T05:14:07.526Z,28.27
2024-01-14T05:14:39.903Z,28.53
2024-01-14T05:15:11.917Z,28.93
2024-01-14T05:15:43.932Z,29.90
2024-01-14T05:16:15.883Z,29.70
2024-01-14T05:16:47.855Z,28.40
2024-01-14T05:17:19.791Z,30.23
2024-01-14T05:17:51.932Z,29.90
2024-01-14T05:18:24.084Z,31.30
2024-01-14T05:18:57.476Z,30.43
2024-01-14T05:19:30.003Z,30.30
2024-01-14T05:20:02.430Z,30.53
2024-01-14T05:20:34.552Z,30.10
2024-01-14T05:21:07.740Z,30.60
2024-01-14T05:21:39.768Z,30.90
2024-01-14T05:22:11.740Z,31.50
2024-01-14T05:22:43.676Z,29.63
2024-01-14T05:23:15.617Z,30.20
2024-01-14T05:23:47.648Z,30.40
2024-01-14T05:24:19.693Z,30.87
2024-01-14T05:24:51.699Z,30.37
2024-01-14T05:25:23.728Z,31.37
2024-01-14T05:25:55.657Z,30.17
2024-01-14T05:26:27.625Z,31.47
2024-01-14T05:26:59.616Z,31.30
2024-01-14T05:27:31.676Z,30.70
2024-01-14T05:28:03.731Z,31.67
2024-01-14T05:28:35.774Z,31.60
2024-01-14T05:29:07.733Z,31.00
2024-01-14T05:29:43.102Z,31.70
2024-01-14T05:30:18.565Z,30.23
2024-01-14T05:30:50.572Z,31.73
2024-01-14T05:31:22.593Z,31.37
2024-01-14T05:31:54.593Z,30.90
2024-01-14T05:32:26.600Z,31.93
2024-01-14T05:32:58.631Z,30.97
2024-01-14T05:33:30.857Z,31.57
2024-01-14T05:34:02.913Z,31.30
2024-01-14T05:34:34.932Z,31.77
2024-01-14T05:35:06.865Z,32.70
2024-01-14T05:35:38.867Z,31.47
2024-01-14T05:36:10.827Z,31.33
2024-01-14T05:36:42.813Z,32.10
2024-01-14T05:37:14.844Z,32.23
2024-01-14T05:37:46.768Z,32.27
2024-01-14T05:38:18.728Z,33.13
2024-01-14T05:38:50.696Z,32.60
2024-01-14T05:39:22.959Z,32.07
2024-01-14T05:39:54.915Z,31.43
2024-01-14T05:40:26.822Z,33.33
2024-01-14T05:40:58.807Z,33.97
2024-01-14T05:41:30.704Z,34.63
2024-01-14T05:42:02.923Z,35.70
2024-01-14T05:42:34.969Z,37.37
2024-01-14T05:43:07.305Z,35.93
2024-01-14T05:43:40.685Z,34.77
2024-01-14T05:44:12.591Z,36.13
2024-01-14T05:44:44.555Z,37.97
2024-01-14T05:45:16.549Z,38.90
2024-01-14T05:45:48.486Z,36.27
2024-01-14T05:46:20.416Z,36.53
2024-01-14T05:46:52.359Z,36.27
2024-01-14T05:47:24.313Z,35.77
2024-01-14T05:47:56.563Z,35.43
2024-01-14T05:48:28.701Z,35.93
2024-01-14T05:49:00.954Z,36.40
2024-01-14T05:49:33.178Z,35.67
2024-01-14T05:50:05.609Z,34.93
2024-01-14T05:50:37.554Z,34.53
2024-01-14T05:51:10.829Z,34.50
2024-01-14T05:51:43.171Z,35.67
2024-01-14T05:52:15.143Z,36.20
2024-01-14T05:52:47.051Z,36.70
2024-01-14T05:53:20.253Z,36.13
2024-01-14T05:53:52.179Z,35.87
2024-01-14T05:54:24.177Z,37.03
2024-01-14T05:54:56.139Z,37.27
2024-01-14T05:55:28.090Z,36.83
2024-01-14T05:56:00.069Z,36.37
2024-01-14T05:56:32.003Z,36.00
2024-01-14T05:57:04.087Z,35.60
2024-01-14T05:57:36.066Z,36.77
2024-01-14T05:58:07.973Z,36.50
2024-01-14T05:58:42.972Z,36.17
2024-01-14T05:59:14.928Z,36.37
2024-01-14T05:59:46.840Z,37.37
2024-01-14T06:00:23.485Z,37.20
2024-01-14T06:00:55.655Z,37.63
2024-01-14T06:01:30.600Z,37.03
2024-01-14T06:02:02.553Z,38.43
2024-01-14T06:02:34.566Z,37.73
2024-01-14T06:03:06.514Z,37.70
2024-01-14T06:03:38.583Z,36.63
2024-01-14T06:04:10.568Z,38.00
2024-01-14T06:04:42.574Z,37.27
2024-01-14T06:05:14.583Z,38.30
2024-01-14T06:05:46.754Z,38.00
2024-01-14T06:06:18.917Z,37.43
2024-01-14T06:06:51.142Z,37.80
2024-01-14T06:07:23.661Z,37.10
2024-01-14T06:07:55.631Z,38.07
2024-01-14T06:08:27.556Z,39.63
2024-01-14T06:08:59.502Z,39.93
2024-01-14T06:09:32.207Z,38.50
2024-01-14T06:10:04.869Z,39.33
2024-01-14T06:10:38.738Z,38.40
2024-01-14T06:11:13.602Z,40.17
2024-01-14T06:11:45.519Z,38.90
2024-01-14T06:12:17.674Z,40.90
2024-01-14T06:12:49.687Z,41.33
2024-01-14T06:13:21.632Z,39.77
2024-01-14T06:13:53.578Z,41.27
2024-01-14T06:14:25.506Z,41.60
2024-01-14T06:14:57.512Z,40.50
2024-01-14T06:15:29.741Z,40.90
2024-01-14T06:16:02.654Z,40.47
2024-01-14T06:16:39.295Z,40.53
2024-01-14T06:17:11.236Z,40.20
2024-01-14T06:17:43.212Z,39.73
2024-01-14T06:18:15.294Z,40.97
2024-01-14T06:18:47.543Z,40.47
2024-01-14T06:19:19.604Z,40.20
2024-01-14T06:19:51.718Z,39.57
2024-01-14T06:20:23.766Z,40.43
2024-01-14T06:21:01.609Z,39.40
2024-01-14T06:21:33.690Z,39.13
2024-01-14T06:22:05.682Z,40.43
2024-01-14T06:22:37.613Z,40.67
2024-01-14T06:23:09.504Z,40.03
2024-01-14T06:23:41.524Z,39.53
2024-01-14T06:24:17.257Z,39.57
2024-01-14T06:24:49.325Z,39.30
2024-01-14T06:25:21.243Z,40.10
2024-01-14T06:25:53.182Z,39.23
2024-01-14T06:26:25.132Z,40.30
2024-01-14T06:26:57.959Z,39.97
2024-01-14T06:27:30.004Z,38.80
2024-01-14T06:28:03.675Z,37.03
2024-01-14T06:28:35.617Z,38.87
2024-01-14T06:29:07.750Z,39.13
2024-01-14T06:29:41.377Z,39.43
2024-01-14T06:30:14.423Z,40.47
2024-01-14T06:30:46.786Z,39.20
2024-01-14T06:31:19.064Z,39.33
2024-01-14T06:31:51.162Z,38.80
2024-01-14T06:32:23.086Z,39.43
2024-01-14T06:32:58.166Z,39.97
2024-01-14T06:33:32.383Z,39.77
2024-01-14T06:34:05.080Z,39.60
2024-01-14T06:34:37.283Z,39.37
2024-01-14T06:35:09.642Z,39.10
2024-01-14T06:35:41.702Z,39.97
2024-01-14T06:36:13.935Z,41.03
2024-01-14T06:36:45.976Z,41.53
2024-01-14T06:37:17.942Z,40.60
2024-01-14T06:37:51.044Z,39.33
2024-01-14T06:38:22.973Z,38.83
2024-01-14T06:38:54.900Z,39.27
2024-01-14T06:39:26.877Z,40.93
2024-01-14T06:39:58.808Z,40.07
2024-01-14T06:40:35.888Z,41.17
2024-01-14T06:41:23.301Z,39.13
2024-01-14T06:41:55.251Z,40.73
2024-01-14T06:42:29.069Z,41.00
2024-01-14T06:43:01.366Z,39.70
2024-01-14T06:43:33.295Z,39.50
2024-01-14T06:44:05.246Z,40.37
2024-01-14T06:44:39.867Z,40.30
2024-01-14T06:45:14.073Z,39.57
2024-01-14T06:45:45.991Z,40.40
2024-01-14T06:46:17.908Z,40.83
2024-01-14T06:46:49.883Z,41.23
2024-01-14T06:47:21.788Z,40.20
2024-01-14T06:47:54.012Z,41.10
2024-01-14T06:48:26.177Z,40.30
2024-01-14T06:48:58.330Z,41.53
2024-01-14T06:49:30.526Z,43.43
2024-01-14T06:50:10.718Z,42.77
2024-01-14T06:50:46.747Z,42.70
2024-01-14T06:51:18.716Z,44.00
2024-01-14T06:51:50.732Z,43.33
2024-01-14T06:52:23.833Z,40.63
2024-01-14T06:52:55.761Z,39.20
2024-01-14T06:53:27.685Z,39.90
2024-01-14T06:53:59.605Z,39.93
2024-01-14T06:54:31.557Z,39.97
2024-01-14T06:55:05.578Z,39.87
2024-01-14T06:55:37.563Z,40.13
2024-01-14T06:56:09.979Z,40.17
2024-01-14T06:56:48.337Z,39.43
2024-01-14T06:57:20.341Z,39.40